Time;durP1;ratioP1;P1;durP2;ratioP2;P2;SDS_P1;SDS_P2;PMS_P1;PMS_P2;Temp;Humidity;BMP_temperature;BMP_pressure;BME280_temperature;BME280_humidity;BME280_pressure;Samples;Min_cycle;Max_cycle;Signal;HPM_P1;HPM_P2
2021/04/27 00:00:16;;;;;;;0.65;0.30;;;6.20;54.10;;;;;;4994913;28;20019;-73
2021/04/27 00:02:44;;;;;;;0.50;0.50;;;6.20;54.20;;;;;;4994938;28;20054;-72
2021/04/27 00:05:12;;;;;;;0.80;0.80;;;6.10;54.20;;;;;;4994631;28;20069;-72
2021/04/27 00:07:38;;;;;;;0.43;0.43;;;6.10;54.30;;;;;;4994886;28;20061;-72
2021/04/27 00:10:06;;;;;;;0.55;0.50;;;6.10;54.40;;;;;;4994859;28;20025;-72
2021/04/27 00:12:32;;;;;;;0.57;0.57;;;6.00;54.50;;;;;;4994875;28;20463;-71
2021/04/27 00:14:58;;;;;;;0.43;0.43;;;6.00;54.50;;;;;;4994660;28;20053;-71
2021/04/27 00:17:23;;;;;;;0.60;0.60;;;6.00;54.60;;;;;;4994804;28;20106;-72
2021/04/27 00:19:49;;;;;;;0.77;0.70;;;6.00;54.60;;;;;;4994185;28;20479;-72
2021/04/27 00:22:14;;;;;;;0.68;0.68;;;5.90;54.70;;;;;;4994544;28;20045;-72
2021/04/27 00:24:40;;;;;;;1.20;0.50;;;5.90;54.70;;;;;;4994568;28;20026;-72
2021/04/27 00:27:05;;;;;;;1.33;0.60;;;5.90;54.80;;;;;;4994689;28;20030;-72
2021/04/27 00:29:31;;;;;;;0.45;0.45;;;5.90;54.90;;;;;;4994340;28;20075;-72
2021/04/27 00:31:57;;;;;;;0.77;0.68;;;5.90;54.90;;;;;;4994516;28;20033;-73
2021/04/27 00:34:23;;;;;;;0.68;0.60;;;5.90;55.00;;;;;;4993307;28;20026;-73
2021/04/27 00:36:49;;;;;;;0.80;0.80;;;5.80;55.00;;;;;;5009562;28;20116;-72
2021/04/27 00:39:14;;;;;;;0.50;0.50;;;5.80;55.10;;;;;;4994412;28;20022;-73
2021/04/27 00:41:40;;;;;;;0.57;0.57;;;5.80;55.10;;;;;;4994035;28;20037;-73
2021/04/27 00:44:05;;;;;;;1.27;0.40;;;5.80;55.30;;;;;;4994351;28;20030;-73
2021/04/27 00:46:31;;;;;;;0.45;0.45;;;5.80;55.30;;;;;;4994395;28;20553;-73
2021/04/27 00:48:57;;;;;;;1.00;0.57;;;5.70;55.30;;;;;;4993679;28;20038;-73
2021/04/27 00:51:23;;;;;;;0.40;0.40;;;5.70;55.30;;;;;;4994320;28;20058;-73
2021/04/27 00:53:50;;;;;;;0.85;0.80;;;5.70;55.30;;;;;;4993963;28;20045;-73
2021/04/27 00:56:15;;;;;;;0.75;0.70;;;5.70;56.00;;;;;;4993812;28;20047;-73
2021/04/27 00:58:41;;;;;;;0.40;0.40;;;5.70;55.30;;;;;;5009043;28;20031;-73
2021/04/27 01:01:07;;;;;;;0.50;0.50;;;5.60;55.40;;;;;;4992695;28;20438;-73
2021/04/27 01:03:33;;;;;;;0.60;0.60;;;5.60;55.50;;;;;;4993386;28;20034;-73
2021/04/27 01:05:59;;;;;;;0.30;0.30;;;5.60;55.60;;;;;;4993952;28;20018;-73
2021/04/27 01:08:46;;;;;;;0.40;0.40;;;5.50;55.60;;;;;;4993707;28;20037;-73
2021/04/27 01:11:29;;;;;;;0.57;0.57;;;5.50;55.70;;;;;;4993828;28;20033;-73
2021/04/27 01:14:06;;;;;;;0.40;0.40;;;5.60;56.30;;;;;;4993837;28;20490;-72
2021/04/27 01:16:32;;;;;;;0.52;0.52;;;5.50;55.70;;;;;;4993853;28;20034;-73
2021/04/27 01:18:59;;;;;;;0.52;0.52;;;5.50;55.70;;;;;;4993293;28;20430;-73
2021/04/27 01:21:27;;;;;;;0.40;0.40;;;5.50;55.70;;;;;;4993837;28;20110;-72
2021/04/27 01:24:04;;;;;;;0.70;0.70;;;5.50;55.80;;;;;;4993697;28;20113;-72
2021/04/27 01:26:29;;;;;;;0.52;0.52;;;5.50;55.80;;;;;;4993678;28;20478;-72
2021/04/27 01:28:56;;;;;;;0.55;0.55;;;5.40;55.80;;;;;;4993654;28;20022;-72
2021/04/27 01:31:23;;;;;;;0.60;0.60;;;5.40;55.90;;;;;;4993092;28;20027;-72
2021/04/27 01:33:49;;;;;;;0.60;0.60;;;5.40;56.00;;;;;;4993485;28;20018;-73
2021/04/27 01:36:15;;;;;;;1.55;0.60;;;5.30;56.00;;;;;;4993845;28;20027;-73
2021/04/27 01:38:42;;;;;;;0.57;0.40;;;5.30;56.20;;;;;;4993564;28;20034;-72
2021/04/27 01:41:08;;;;;;;0.85;0.75;;;5.30;56.30;;;;;;4993525;28;20030;-72
2021/04/27 01:43:34;;;;;;;0.50;0.50;;;5.20;56.20;;;;;;4993386;28;20088;-72
2021/04/27 01:46:04;;;;;;;0.75;0.75;;;5.20;56.30;;;;;;4995665;28;20046;-72
2021/04/27 01:48:31;;;;;;;0.50;0.50;;;5.20;56.30;;;;;;5012576;28;20018;-72
2021/04/27 01:50:57;;;;;;;0.57;0.40;;;5.20;56.30;;;;;;4997375;28;20382;-72
2021/04/27 01:53:23;;;;;;;0.40;0.40;;;5.20;56.40;;;;;;4997358;28;20037;-72
2021/04/27 01:55:50;;;;;;;0.30;0.30;;;5.20;56.40;;;;;;4996993;28;20147;-73
2021/04/27 01:58:16;;;;;;;0.45;0.45;;;5.10;56.40;;;;;;4997210;28;20034;-72
2021/04/27 02:00:42;;;;;;;0.77;0.77;;;5.10;56.50;;;;;;4996799;28;20101;-72
2021/04/27 02:03:07;;;;;;;0.65;0.40;;;5.10;56.60;;;;;;4997072;28;20550;-72
2021/04/27 02:05:33;;;;;;;0.47;0.47;;;5.10;56.60;;;;;;4997120;28;20053;-72
2021/04/27 02:07:59;;;;;;;0.70;0.70;;;5.10;56.70;;;;;;4997080;28;20375;-72
2021/04/27 02:10:26;;;;;;;0.80;0.50;;;5.00;56.70;;;;;;4996954;28;20138;-73
2021/04/27 02:12:53;;;;;;;0.43;0.40;;;5.00;56.80;;;;;;4997041;28;20096;-72
2021/04/27 02:15:22;;;;;;;1.00;0.60;;;5.00;56.90;;;;;;4996546;28;20030;-72
2021/04/27 02:17:53;;;;;;;0.50;0.50;;;4.90;56.90;;;;;;4996783;28;20061;-72
2021/04/27 02:20:24;;;;;;;0.40;0.40;;;4.90;57.00;;;;;;4996961;28;20030;-72
2021/04/27 02:22:51;;;;;;;0.45;0.45;;;5.00;57.10;;;;;;4996985;28;20030;-72
2021/04/27 02:25:19;;;;;;;0.40;0.40;;;5.00;57.10;;;;;;4996723;28;20033;-72
2021/04/27 02:27:45;;;;;;;0.68;0.50;;;4.90;57.10;;;;;;4996602;28;20042;-72
2021/04/27 02:30:12;;;;;;;0.40;0.40;;;4.90;57.10;;;;;;4996327;28;20022;-72
2021/04/27 02:32:39;;;;;;;2.00;0.60;;;5.00;57.10;;;;;;4996576;28;20109;-72
2021/04/27 02:35:08;;;;;;;0.75;0.60;;;4.90;57.10;;;;;;4996573;28;20018;-72
2021/04/27 02:37:34;;;;;;;0.47;0.47;;;4.90;57.10;;;;;;4996438;28;20042;-73
2021/04/27 02:39:59;;;;;;;0.47;0.47;;;5.00;57.10;;;;;;4996541;28;20026;-72
2021/04/27 02:42:25;;;;;;;0.70;0.70;;;4.90;57.10;;;;;;5011502;28;20441;-72
2021/04/27 02:44:51;;;;;;;0.50;0.50;;;4.90;57.20;;;;;;4996019;28;20026;-71
2021/04/27 02:47:17;;;;;;;0.60;0.60;;;4.90;57.20;;;;;;4996401;28;20494;-72
2021/04/27 02:49:42;;;;;;;0.60;0.55;;;4.90;57.30;;;;;;4996311;28;20027;-72
2021/04/27 02:52:08;;;;;;;0.40;0.40;;;4.90;57.30;;;;;;4996297;28;20026;-73
2021/04/27 02:54:34;;;;;;;0.60;0.60;;;4.90;57.50;;;;;;4996035;28;20030;-72
2021/04/27 02:57:00;;;;;;;0.60;0.60;;;4.80;57.40;;;;;;4995650;28;20019;-72
2021/04/27 02:59:25;;;;;;;0.40;0.40;;;4.80;57.50;;;;;;4995749;28;20482;-72
2021/04/27 03:01:51;;;;;;;0.55;0.55;;;4.80;57.50;;;;;;4996077;28;20027;-72
2021/04/27 03:04:16;;;;;;;0.50;0.50;;;4.70;57.60;;;;;;4995890;28;20019;-73
2021/04/27 03:06:42;;;;;;;0.60;0.60;;;4.70;57.70;;;;;;4996005;28;20030;-73
2021/04/27 03:09:07;;;;;;;0.70;0.50;;;4.70;57.70;;;;;;4995910;28;20027;-73
2021/04/27 03:11:33;;;;;;;0.88;0.52;;;4.60;57.70;;;;;;4995820;28;20106;-72
2021/04/27 03:13:59;;;;;;;0.40;0.40;;;4.60;57.70;;;;;;4995426;28;20443;-73
2021/04/27 03:16:24;;;;;;;0.40;0.40;;;4.70;57.70;;;;;;4995622;28;20023;-73
2021/04/27 03:18:50;;;;;;;0.68;0.68;;;4.60;57.70;;;;;;4995836;28;20360;-73
2021/04/27 03:21:16;;;;;;;0.57;0.57;;;4.60;57.70;;;;;;4995683;28;20022;-72
2021/04/27 03:23:42;;;;;;;0.38;0.38;;;4.60;57.70;;;;;;4995571;28;20061;-73
2021/04/27 03:26:08;;;;;;;0.70;0.70;;;4.60;57.70;;;;;;4995537;28;20054;-73
2021/04/27 03:28:33;;;;;;;0.40;0.40;;;4.60;57.80;;;;;;4993779;28;20026;-73
2021/04/27 03:31:00;;;;;;;0.40;0.40;;;4.50;57.80;;;;;;4995588;28;20101;-73
2021/04/27 03:33:25;;;;;;;0.40;0.40;;;4.50;57.90;;;;;;4995827;28;20057;-73
2021/04/27 03:35:52;;;;;;;0.50;0.50;;;4.50;57.90;;;;;;4995555;28;20022;-73
2021/04/27 03:38:17;;;;;;;0.60;0.60;;;4.50;58.60;;;;;;4995359;28;20029;-73
2021/04/27 03:40:44;;;;;;;0.60;0.57;;;4.50;58.10;;;;;;4995416;28;20031;-73
2021/04/27 03:43:09;;;;;;;0.65;0.65;;;4.40;58.20;;;;;;4994876;28;20034;-73
2021/04/27 03:45:35;;;;;;;0.40;0.40;;;4.40;58.20;;;;;;4995389;28;20022;-73
2021/04/27 03:48:10;;;;;;;0.85;0.85;;;4.30;58.20;;;;;;4995500;28;20080;-73
2021/04/27 03:50:36;;;;;;;0.47;0.32;;;4.30;58.30;;;;;;4995243;28;20023;-73
2021/04/27 03:53:02;;;;;;;0.50;0.50;;;4.30;58.30;;;;;;4995110;28;20022;-73
2021/04/27 03:55:28;;;;;;;0.50;0.50;;;4.20;58.40;;;;;;4994988;28;20489;-73
2021/04/27 03:57:54;;;;;;;0.70;0.70;;;4.20;58.50;;;;;;4994612;28;20022;-73
2021/04/27 04:00:20;;;;;;;0.50;0.50;;;4.20;58.60;;;;;;4995058;28;20022;-73
2021/04/27 04:02:45;;;;;;;0.57;0.50;;;4.10;59.10;;;;;;4994956;28;20422;-73
2021/04/27 04:05:12;;;;;;;0.40;0.40;;;4.10;58.50;;;;;;4994901;28;20025;-73
2021/04/27 04:07:38;;;;;;;0.90;0.63;;;4.10;58.60;;;;;;4994597;28;20037;-73
2021/04/27 04:10:06;;;;;;;0.43;0.40;;;4.10;58.70;;;;;;4993939;28;20097;-73
2021/04/27 04:12:31;;;;;;;0.40;0.40;;;4.10;58.70;;;;;;4994492;28;20018;-73
2021/04/27 04:14:57;;;;;;;0.98;0.50;;;4.10;58.70;;;;;;4994792;28;20497;-73
2021/04/27 04:17:23;;;;;;;1.02;0.70;;;4.10;58.70;;;;;;4994668;28;20065;-73
2021/04/27 04:19:48;;;;;;;0.57;0.50;;;4.10;58.70;;;;;;4994605;28;20054;-73
2021/04/27 04:22:14;;;;;;;0.60;0.60;;;4.20;58.70;;;;;;4994557;28;20105;-72
2021/04/27 04:24:40;;;;;;;0.60;0.50;;;4.10;58.70;;;;;;4994560;28;20514;-72
2021/04/27 04:27:06;;;;;;;0.60;0.60;;;4.20;58.80;;;;;;4994080;28;20030;-73
2021/04/27 04:29:31;;;;;;;0.80;0.80;;;4.20;58.70;;;;;;4994498;28;20383;-72
2021/04/27 04:31:57;;;;;;;0.70;0.70;;;4.20;58.70;;;;;;4994439;28;20069;-72
2021/04/27 04:34:23;;;;;;;0.40;0.40;;;4.20;58.70;;;;;;4994516;28;20026;-73
2021/04/27 04:36:49;;;;;;;1.00;0.57;;;4.20;58.70;;;;;;4994164;28;20030;-72
2021/04/27 04:39:14;;;;;;;0.40;0.40;;;4.20;58.70;;;;;;4994333;28;20025;-72
2021/04/27 04:41:40;;;;;;;0.63;0.63;;;4.20;58.70;;;;;;4993733;28;20026;-73
2021/04/27 04:44:06;;;;;;;0.80;0.60;;;4.30;58.70;;;;;;4994309;28;20104;-72
2021/04/27 04:46:31;;;;;;;0.50;0.50;;;4.30;58.80;;;;;;5009326;28;20112;-71
2021/04/27 04:48:58;;;;;;;0.70;0.70;;;4.20;58.80;;;;;;4994156;28;20032;-72
2021/04/27 04:51:24;;;;;;;0.73;0.70;;;4.30;58.90;;;;;;4994206;28;20030;-72
2021/04/27 04:53:50;;;;;;;1.00;0.60;;;4.30;58.70;;;;;;4993986;28;20026;-72
2021/04/27 04:56:16;;;;;;;0.30;0.30;;;4.40;58.70;;;;;;4993469;28;20520;-72
2021/04/27 04:58:41;;;;;;;0.85;0.70;;;4.40;58.60;;;;;;4994038;28;20026;-72
2021/04/27 05:01:07;;;;;;;0.70;0.70;;;4.50;58.60;;;;;;4993955;28;20063;-72
2021/04/27 05:03:33;;;;;;;0.52;0.50;;;4.50;58.60;;;;;;4993749;28;20101;-73
2021/04/27 05:05:58;;;;;;;0.43;0.43;;;4.50;58.50;;;;;;4993750;28;20434;-72
2021/04/27 05:08:31;;;;;;;0.40;0.40;;;4.60;58.60;;;;;;4993928;28;20486;-72
2021/04/27 05:10:57;;;;;;;0.50;0.50;;;4.60;58.50;;;;;;4991966;28;20018;-72
2021/04/27 05:13:22;;;;;;;0.45;0.45;;;4.70;58.50;;;;;;4993797;28;20030;-72
2021/04/27 05:15:48;;;;;;;0.75;0.65;;;4.70;58.40;;;;;;4993780;28;20018;-72
2021/04/27 05:18:13;;;;;;;0.65;0.60;;;4.80;58.40;;;;;;4993665;28;20081;-71
2021/04/27 05:20:39;;;;;;;0.40;0.40;;;4.80;58.40;;;;;;4993361;28;20029;-72
2021/04/27 05:23:05;;;;;;;0.30;0.30;;;4.90;58.40;;;;;;4993609;28;20050;-72
2021/04/27 05:25:30;;;;;;;0.90;0.60;;;4.90;58.30;;;;;;4993243;28;20046;-72
2021/04/27 05:27:56;;;;;;;1.00;0.77;;;4.90;58.30;;;;;;4993685;28;20113;-73
2021/04/27 05:30:22;;;;;;;0.60;0.60;;;5.00;58.30;;;;;;4993654;28;20029;-72
2021/04/27 05:32:47;;;;;;;0.70;0.70;;;5.00;58.30;;;;;;4993733;28;20073;-72
2021/04/27 05:35:13;;;;;;;0.50;0.50;;;5.00;58.30;;;;;;4993600;28;20372;-72
2021/04/27 05:37:39;;;;;;;0.73;0.73;;;5.10;58.30;;;;;;4993899;28;20341;-72
2021/04/27 05:40:05;;;;;;;0.90;0.90;;;5.10;58.40;;;;;;4993262;28;20049;-72
2021/04/27 05:42:31;;;;;;;0.52;0.52;;;5.20;58.40;;;;;;4993414;28;20053;-73
2021/04/27 05:44:56;;;;;;;0.30;0.30;;;5.20;58.40;;;;;;4993739;28;20565;-74
2021/04/27 05:47:22;;;;;;;0.73;0.70;;;5.30;58.40;;;;;;4992462;28;20030;-72
2021/04/27 05:49:48;;;;;;;0.65;0.65;;;5.30;58.30;;;;;;4993532;28;20022;-73
2021/04/27 05:52:13;;;;;;;0.60;0.60;;;5.40;58.30;;;;;;4993930;28;20446;-73
2021/04/27 05:54:39;;;;;;;0.70;0.70;;;5.50;58.20;;;;;;4992704;28;20565;-72
2021/04/27 05:57:05;;;;;;;0.70;0.70;;;5.50;58.20;;;;;;4993439;28;20095;-73
2021/04/27 05:59:30;;;;;;;0.40;0.40;;;5.50;58.20;;;;;;4993575;28;20158;-73
2021/04/27 06:01:56;;;;;;;0.60;0.60;;;5.60;58.20;;;;;;4993356;28;20471;-74
2021/04/27 06:04:21;;;;;;;1.25;0.80;;;5.70;58.20;;;;;;4993247;28;20038;-73
2021/04/27 06:06:47;;;;;;;0.45;0.45;;;5.70;58.10;;;;;;4993410;28;20026;-74
2021/04/27 06:09:16;;;;;;;0.60;0.60;;;5.80;58.10;;;;;;4992988;28;20030;-72
2021/04/27 06:11:42;;;;;;;0.40;0.40;;;5.80;58.00;;;;;;4993463;28;20029;-75
2021/04/27 06:14:08;;;;;;;0.50;0.50;;;5.90;58.00;;;;;;4993472;28;20030;-73
2021/04/27 06:16:34;;;;;;;0.75;0.75;;;6.00;57.90;;;;;;4993315;28;20014;-72
2021/04/27 06:19:00;;;;;;;0.65;0.60;;;6.00;57.80;;;;;;4993337;28;20035;-72
2021/04/27 06:21:25;;;;;;;0.50;0.50;;;6.20;57.80;;;;;;4992839;28;20122;-72
2021/04/27 06:23:51;;;;;;;0.90;0.90;;;6.20;57.70;;;;;;4993281;28;20034;-72
2021/04/27 06:26:19;;;;;;;0.73;0.70;;;6.30;57.70;;;;;;4993359;28;20391;-73
2021/04/27 06:28:44;;;;;;;0.77;0.77;;;6.40;57.60;;;;;;4991839;28;20030;-73
2021/04/27 06:31:10;;;;;;;0.60;0.60;;;6.50;57.60;;;;;;5008146;28;20022;-74
2021/04/27 06:33:36;;;;;;;1.40;1.30;;;6.60;57.60;;;;;;4996528;28;20101;-73
2021/04/27 06:36:01;;;;;;;0.60;0.60;;;6.60;57.50;;;;;;4996277;28;20045;-74
2021/04/27 06:38:27;;;;;;;0.70;0.70;;;6.70;57.40;;;;;;4996741;28;20037;-74
2021/04/27 06:40:53;;;;;;;0.70;0.70;;;6.80;57.40;;;;;;4996592;28;20022;-73
2021/04/27 06:43:19;;;;;;;0.60;0.60;;;6.90;57.30;;;;;;4996434;28;20038;-76
2021/04/27 06:45:45;;;;;;;0.80;0.80;;;7.00;57.20;;;;;;4996671;28;20014;-78
2021/04/27 06:48:11;;;;;;;0.80;0.80;;;7.10;57.20;;;;;;4996495;28;20032;-77
2021/04/27 06:50:38;;;;;;;0.85;0.85;;;7.10;57.10;;;;;;4996036;28;20026;-74
2021/04/27 06:53:05;;;;;;;1.27;0.77;;;7.20;57.00;;;;;;4996527;28;20033;-75
2021/04/27 06:55:31;;;;;;;0.60;0.60;;;7.30;57.00;;;;;;4996464;28;20039;-75
2021/04/27 06:58:10;;;;;;;1.25;1.10;;;7.40;56.90;;;;;;4996326;28;20029;-75
2021/04/27 07:00:37;;;;;;;0.85;0.85;;;7.50;56.80;;;;;;4996149;28;20014;-75
2021/04/27 07:03:03;;;;;;;0.80;0.75;;;7.50;56.90;;;;;;4996206;28;20037;-77
2021/04/27 07:05:28;;;;;;;0.90;0.80;;;7.60;56.80;;;;;;4995764;28;20022;-74
2021/04/27 07:07:54;;;;;;;0.70;0.70;;;7.70;56.80;;;;;;4996239;28;20025;-74
2021/04/27 07:10:20;;;;;;;1.13;1.00;;;7.70;56.70;;;;;;4994990;28;20121;-75
2021/04/27 07:12:45;;;;;;;0.60;0.60;;;7.80;56.60;;;;;;4996102;28;20478;-74
2021/04/27 07:15:12;;;;;;;0.80;0.80;;;8.00;56.60;;;;;;4996377;28;20105;-76
2021/04/27 07:17:37;;;;;;;0.60;0.60;;;8.10;56.50;;;;;;5015223;28;20038;-75
2021/04/27 07:20:04;;;;;;;0.80;0.80;;;8.20;56.40;;;;;;5014503;28;20431;-75
2021/04/27 07:22:29;;;;;;;0.50;0.50;;;8.30;56.20;;;;;;5015001;28;20501;-77
2021/04/27 07:24:56;;;;;;;0.80;0.80;;;8.40;56.10;;;;;;5013740;28;20018;-77
2021/04/27 07:27:22;;;;;;;0.80;0.80;;;8.60;56.10;;;;;;5015113;28;20018;-75
2021/04/27 07:29:48;;;;;;;1.13;0.60;;;8.60;56.00;;;;;;5015158;28;20026;-75
2021/04/27 07:32:14;;;;;;;0.85;0.50;;;8.70;55.90;;;;;;5015255;28;20509;-74
2021/04/27 07:34:40;;;;;;;0.93;0.93;;;8.80;55.90;;;;;;5014850;28;20029;-75
2021/04/27 07:37:05;;;;;;;0.95;0.90;;;8.90;55.80;;;;;;5015192;28;20026;-75
2021/04/27 07:39:31;;;;;;;0.98;0.98;;;9.00;55.70;;;;;;5015089;28;20041;-76
2021/04/27 07:41:57;;;;;;;1.60;1.42;;;9.00;55.80;;;;;;5014985;28;20089;-76
2021/04/27 07:44:22;;;;;;;1.65;1.55;;;9.10;55.80;;;;;;5014927;28;20030;-76
2021/04/27 07:46:48;;;;;;;0.70;0.70;;;9.20;55.80;;;;;;5030074;28;20367;-73
2021/04/27 07:49:14;;;;;;;0.77;0.77;;;9.20;55.70;;;;;;5014572;28;20022;-75
2021/04/27 07:51:39;;;;;;;0.73;0.73;;;9.30;56.30;;;;;;5014898;28;20022;-74
2021/04/27 07:54:05;;;;;;;1.95;1.00;;;9.40;55.60;;;;;;5014822;28;20026;-74
2021/04/27 07:56:31;;;;;;;0.85;0.82;;;9.50;55.50;;;;;;5014411;28;20073;-73
2021/04/27 07:58:58;;;;;;;1.15;1.15;;;9.60;55.40;;;;;;5014752;28;20022;-73
2021/04/27 08:01:24;;;;;;;0.80;0.80;;;9.70;55.30;;;;;;5014684;28;20105;-73
2021/04/27 08:03:49;;;;;;;0.80;0.80;;;9.80;55.20;;;;;;5013981;28;20129;-72
2021/04/27 08:06:15;;;;;;;0.95;0.90;;;9.90;55.10;;;;;;5014700;28;20025;-73
2021/04/27 08:08:40;;;;;;;1.30;1.20;;;10.00;55.10;;;;;;5029591;28;20467;-73
2021/04/27 08:11:06;;;;;;;1.00;0.95;;;10.10;55.10;;;;;;5014454;28;20034;-73
2021/04/27 08:13:32;;;;;;;1.00;1.00;;;10.10;55.00;;;;;;5014376;28;20026;-72
2021/04/27 08:15:57;;;;;;;1.25;1.15;;;10.20;54.90;;;;;;5014395;28;20087;-72
2021/04/27 08:18:23;;;;;;;0.60;0.60;;;10.20;54.80;;;;;;5013893;28;20034;-73
2021/04/27 08:20:49;;;;;;;0.77;0.77;;;10.20;54.80;;;;;;5029615;28;20104;-72
2021/04/27 08:23:15;;;;;;;0.75;0.75;;;10.30;54.70;;;;;;5014056;28;20490;-72
2021/04/27 08:25:40;;;;;;;0.70;0.70;;;10.40;54.60;;;;;;5014799;28;20117;-73
2021/04/27 08:28:06;;;;;;;1.10;0.98;;;10.50;54.50;;;;;;5014186;28;20108;-73
2021/04/27 08:30:33;;;;;;;0.90;0.90;;;10.60;54.40;;;;;;5014132;28;20026;-73
2021/04/27 08:32:59;;;;;;;0.75;0.75;;;10.60;54.30;;;;;;5013519;28;20080;-73
2021/04/27 08:35:25;;;;;;;1.40;1.30;;;10.70;54.30;;;;;;5014243;28;20132;-72
2021/04/27 08:37:50;;;;;;;0.90;0.90;;;10.80;54.20;;;;;;5014053;28;20502;-73
2021/04/27 08:40:16;;;;;;;0.75;0.70;;;10.80;54.10;;;;;;5013996;28;20022;-73
2021/04/27 08:42:46;;;;;;;0.63;0.63;;;10.90;54.00;;;;;;5028913;28;20117;-72
2021/04/27 08:45:12;;;;;;;;;;;11.00;54.00;;;;;;5014079;28;20021;-72
2021/04/27 08:47:38;;;;;;;0.52;0.52;;;11.10;54.00;;;;;;5013439;28;19905;-72
2021/04/27 08:50:06;;;;;;;0.75;0.75;;;11.10;53.90;;;;;;5013794;28;20083;-74
2021/04/27 08:52:31;;;;;;;0.70;0.70;;;11.20;53.70;;;;;;5013554;28;20113;-73
2021/04/27 08:54:57;;;;;;;0.85;0.80;;;11.20;53.70;;;;;;5012967;28;20133;-73
2021/04/27 08:57:23;;;;;;;0.50;0.50;;;11.30;53.70;;;;;;5013744;28;20064;-73
2021/04/27 08:59:48;;;;;;;0.82;0.82;;;11.40;53.60;;;;;;5014057;28;20026;-72
2021/04/27 09:02:14;;;;;;;0.88;0.88;;;11.50;53.60;;;;;;5013248;28;20030;-73
2021/04/27 09:04:49;;;;;;;1.02;0.85;;;11.60;53.40;;;;;;5014012;28;20022;-73
2021/04/27 09:07:17;;;;;;;0.70;0.70;;;11.70;53.30;;;;;;5014323;28;20014;-73
2021/04/27 09:09:58;;;;;;;0.57;0.57;;;11.80;53.20;;;;;;5014066;28;20029;-74
2021/04/27 09:12:27;;;;;;;1.17;0.73;;;11.80;53.10;;;;;;5013969;28;20061;-73
2021/04/27 09:14:58;;;;;;;1.55;0.85;;;11.90;53.20;;;;;;5014136;28;20076;-73
2021/04/27 09:17:26;;;;;;;0.70;0.70;;;11.90;53.10;;;;;;5013751;28;20105;-73
2021/04/27 09:19:53;;;;;;;0.80;0.80;;;12.00;53.00;;;;;;5014540;28;20033;-74
2021/04/27 09:22:31;;;;;;;0.60;0.60;;;12.00;52.80;;;;;;5013779;28;20413;-74
2021/04/27 09:25:03;;;;;;;0.50;0.50;;;12.10;52.70;;;;;;5028834;28;20018;-73
2021/04/27 09:27:29;;;;;;;0.80;0.80;;;12.20;52.70;;;;;;5013415;28;20053;-73
2021/04/27 09:29:57;;;;;;;0.60;0.60;;;12.30;52.60;;;;;;5013626;28;20026;-73
2021/04/27 09:32:35;;;;;;;0.80;0.80;;;12.40;52.50;;;;;;5029182;28;20116;-73
2021/04/27 09:35:32;;;;;;;0.50;0.50;;;12.50;52.30;;;;;;5014133;28;20053;-73
2021/04/27 09:38:16;;;;;;;0.73;0.73;;;12.60;52.20;;;;;;5013423;28;20026;-73
2021/04/27 09:40:55;;;;;;;0.60;0.60;;;12.60;52.10;;;;;;5013537;28;20131;-73
2021/04/27 09:43:22;;;;;;;;;;;12.70;52.00;;;;;;5013826;28;20376;-73
2021/04/27 09:45:49;;;;;;;0.60;0.60;;;12.70;52.10;;;;;;5013318;28;19912;-73
2021/04/27 09:48:31;;;;;;;0.60;0.60;;;12.80;52.10;;;;;;5013627;28;20482;-73
2021/04/27 09:51:04;;;;;;;1.38;0.77;;;12.90;51.90;;;;;;5013970;28;20033;-73
2021/04/27 09:53:49;;;;;;;0.98;0.98;;;13.00;51.70;;;;;;5013606;28;20033;-74
2021/04/27 09:56:34;;;;;;;0.80;0.80;;;13.10;51.40;;;;;;5013658;28;20042;-73
2021/04/27 09:59:02;;;;;;;0.80;0.80;;;13.20;51.40;;;;;;5013424;28;20029;-72
2021/04/27 10:01:28;;;;;;;0.75;0.75;;;13.20;51.30;;;;;;5013694;28;20053;-73
2021/04/27 10:03:54;;;;;;;0.43;0.43;;;13.30;51.10;;;;;;5013690;28;20034;-73
2021/04/27 10:06:19;;;;;;;0.60;0.60;;;13.50;51.00;;;;;;5013695;28;20115;-74
2021/04/27 10:08:45;;;;;;;0.70;0.70;;;13.60;50.80;;;;;;5032630;28;20060;-73
2021/04/27 10:11:11;;;;;;;0.85;0.68;;;13.60;50.80;;;;;;5017542;28;20021;-73
2021/04/27 10:13:37;;;;;;;1.33;0.98;;;13.70;50.60;;;;;;5017328;28;20506;-72
2021/04/27 10:16:02;;;;;;;1.38;0.77;;;13.90;50.50;;;;;;5017361;28;20018;-73
2021/04/27 10:18:30;;;;;;;0.80;0.80;;;14.00;50.10;;;;;;5017373;28;20071;-73
2021/04/27 10:20:59;;;;;;;0.60;0.60;;;14.00;50.20;;;;;;5016871;28;20017;-72
2021/04/27 10:23:24;;;;;;;0.70;0.70;;;14.10;50.90;;;;;;5016732;28;20363;-72
2021/04/27 10:25:52;;;;;;;0.70;0.70;;;14.10;50.10;;;;;;5017179;28;20024;-73
2021/04/27 10:28:18;;;;;;;0.88;0.73;;;14.10;50.00;;;;;;5016649;28;20088;-73
2021/04/27 10:30:45;;;;;;;0.60;0.60;;;14.10;50.00;;;;;;5017162;28;20034;-73
2021/04/27 10:33:17;;;;;;;0.50;0.50;;;14.20;50.10;;;;;;5016804;28;20425;-74
2021/04/27 10:36:00;;;;;;;2.00;0.57;;;14.30;50.00;;;;;;5017133;28;20045;-73
2021/04/27 10:38:50;;;;;;;0.70;0.70;;;14.40;49.70;;;;;;5016906;28;20109;-73
2021/04/27 10:41:21;;;;;;;0.70;0.70;;;14.50;49.60;;;;;;5016524;28;20018;-73
2021/04/27 10:43:55;;;;;;;1.02;0.90;;;14.50;49.60;;;;;;5016331;28;20069;-73
2021/04/27 10:46:21;;;;;;;0.73;0.73;;;14.60;49.50;;;;;;5016726;28;20045;-73
2021/04/27 10:48:48;;;;;;;0.85;0.60;;;14.60;49.40;;;;;;5016176;28;20084;-73
2021/04/27 10:51:19;;;;;;;0.60;0.60;;;14.70;50.00;;;;;;5016263;28;20497;-74
2021/04/27 10:54:02;;;;;;;0.75;0.70;;;14.80;49.30;;;;;;5016675;28;20030;-74
2021/04/27 10:56:47;;;;;;;0.85;0.85;;;14.90;49.10;;;;;;5016488;28;20046;-72
2021/04/27 10:59:26;;;;;;;0.50;0.50;;;15.10;49.10;;;;;;5016164;28;20084;-74
2021/04/27 11:02:16;;;;;;;0.73;0.73;;;15.10;48.90;;;;;;5016232;28;20375;-73
2021/04/27 11:04:44;;;;;;;0.93;0.88;;;15.00;48.80;;;;;;5017081;28;20034;-74
2021/04/27 11:07:15;;;;;;;0.73;0.60;;;15.00;49.10;;;;;;5016722;28;20033;-73
2021/04/27 11:10:01;;;;;;;0.70;0.70;;;15.00;49.10;;;;;;5016237;28;20033;-73
2021/04/27 11:12:36;;;;;;;0.70;0.68;;;15.20;48.90;;;;;;5015615;28;20050;-73
2021/04/27 11:15:08;;;;;;;0.95;0.80;;;15.20;48.70;;;;;;5016197;28;20088;-75
2021/04/27 11:17:55;;;;;;;0.63;0.63;;;15.40;48.50;;;;;;5015836;28;20038;-73
2021/04/27 11:20:51;;;;;;;0.82;0.82;;;15.40;48.50;;;;;;5016018;28;20022;-73
2021/04/27 11:23:39;;;;;;;0.60;0.60;;;15.50;48.30;;;;;;5016074;28;20045;-74
2021/04/27 11:26:30;;;;;;;0.60;0.60;;;15.50;48.30;;;;;;5015761;28;20493;-73
2021/04/27 11:29:04;;;;;;;0.80;0.80;;;15.70;48.10;;;;;;5016376;28;20485;-73
2021/04/27 11:31:30;;;;;;;0.90;0.90;;;15.90;48.00;;;;;;5016019;28;20486;-73
2021/04/27 11:34:02;;;;;;;0.77;0.77;;;16.00;47.80;;;;;;5030954;28;20032;-73
2021/04/27 11:36:37;;;;;;;1.35;1.25;;;16.20;47.40;;;;;;5016078;28;20022;-73
2021/04/27 11:39:30;;;;;;;1.00;1.00;;;16.40;47.20;;;;;;5015734;28;20065;-74
2021/04/27 11:41:58;;;;;;;0.85;0.85;;;16.90;46.80;;;;;;5014336;28;20030;-72
2021/04/27 11:44:39;;;;;;;0.40;0.40;;;17.60;46.00;;;;;;5016226;28;20541;-73
2021/04/27 11:47:15;;;;;;;1.20;1.10;;;18.40;45.10;;;;;;5015472;28;20049;-73
2021/04/27 11:49:53;;;;;;;0.80;0.80;;;18.90;44.30;;;;;;5015930;28;20083;-74
2021/04/27 11:52:41;;;;;;;0.80;0.80;;;19.20;44.10;;;;;;5015890;28;20026;-73
2021/04/27 11:55:11;;;;;;;0.68;0.68;;;19.50;43.80;;;;;;5015323;28;20506;-73
2021/04/27 11:57:44;;;;;;;0.50;0.50;;;19.50;43.90;;;;;;5015846;28;20030;-72
2021/04/27 12:00:12;;;;;;;0.82;0.82;;;19.80;43.70;;;;;;5015387;28;20359;-73
2021/04/27 12:02:38;;;;;;;0.73;0.70;;;20.20;43.20;;;;;;5030456;28;20088;-74
2021/04/27 12:05:05;;;;;;;0.60;0.60;;;20.40;42.90;;;;;;5015161;28;20018;-73
2021/04/27 12:07:31;;;;;;;0.50;0.50;;;20.40;43.10;;;;;;5015438;28;20105;-72
2021/04/27 12:09:59;;;;;;;0.40;0.40;;;20.60;43.00;;;;;;5014849;28;20018;-72
2021/04/27 12:12:26;;;;;;;0.50;0.50;;;21.00;42.60;;;;;;5015267;28;20081;-73
2021/04/27 12:14:56;;;;;;;0.57;0.57;;;21.30;42.20;;;;;;5015182;28;20029;-73
2021/04/27 12:17:25;;;;;;;1.05;0.95;;;21.60;42.00;;;;;;5015103;28;20485;-73
2021/04/27 12:20:08;;;;;;;0.57;0.57;;;21.80;41.40;;;;;;5015238;28;20030;-73
2021/04/27 12:22:52;;;;;;;0.60;0.60;;;21.90;41.50;;;;;;5015133;28;20098;-73
2021/04/27 12:25:20;;;;;;;0.43;0.43;;;22.10;41.40;;;;;;5014604;28;20022;-73
2021/04/27 12:27:47;;;;;;;;;;;22.00;41.20;;;;;;5015403;28;20046;-73
2021/04/27 12:30:19;;;;;;;0.60;0.60;;;21.90;41.90;;;;;;5014200;28;19905;-73
2021/04/27 12:32:49;;;;;;;0.50;0.50;;;22.00;41.80;;;;;;5014712;28;20065;-72
2021/04/27 12:35:17;;;;;;;0.65;0.65;;;22.10;41.30;;;;;;5014764;28;20025;-73
2021/04/27 12:37:44;;;;;;;0.52;0.52;;;22.20;41.40;;;;;;5015103;28;20038;-73
2021/04/27 12:40:19;;;;;;;0.63;0.57;;;22.20;41.20;;;;;;5014352;28;20022;-74
2021/04/27 12:42:59;;;;;;;0.85;0.77;;;22.40;40.80;;;;;;5014303;28;20037;-74
2021/04/27 12:45:29;;;;;;;0.77;0.70;;;22.50;40.50;;;;;;5014200;28;20029;-74
2021/04/27 12:48:05;;;;;;;0.65;0.65;;;22.60;40.40;;;;;;5014242;28;20032;-72
2021/04/27 12:50:31;;;;;;;0.82;0.60;;;22.90;40.10;;;;;;5014822;28;20063;-73
2021/04/27 12:53:03;;;;;;;0.40;0.40;;;22.80;40.00;;;;;;5013675;28;20064;-75
2021/04/27 12:55:35;;;;;;;0.70;0.70;;;23.00;39.70;;;;;;5014021;28;20048;-74
2021/04/27 12:58:21;;;;;;;0.70;0.70;;;23.10;39.50;;;;;;5014330;28;20359;-73